sensor_id;sensor_type;location;lat;lon;timestamp;P1;durP1;ratioP1;P2;durP2;ratioP2
37067;SDS011;22982;42.848;25.468;2023-04-24T00:02:58;18.38;;;14.05;;
37067;SDS011;22982;42.848;25.468;2023-04-24T00:08:01;19.25;;;12.90;;
37067;SDS011;22982;42.848;25.468;2023-04-24T00:13:04;23.80;;;14.00;;
37067;SDS011;22982;42.848;25.468;2023-04-24T00:18:07;24.58;;;14.02;;
37067;SDS011;22982;42.848;25.468;2023-04-24T00:23:09;19.15;;;12.98;;
37067;SDS011;22982;42.848;25.468;2023-04-24T00:28:12;16.25;;;12.75;;
37067;SDS011;22982;42.848;25.468;2023-04-24T00:33:14;17.58;;;12.65;;
37067;SDS011;22982;42.848;25.468;2023-04-24T00:38:18;16.88;;;12.52;;
37067;SDS011;22982;42.848;25.468;2023-04-24T00:43:20;16.73;;;12.07;;
37067;SDS011;22982;42.848;25.468;2023-04-24T00:48:28;18.95;;;12.20;;
37067;SDS011;22982;42.848;25.468;2023-04-24T00:53:31;14.20;;;11.30;;
37067;SDS011;22982;42.848;25.468;2023-04-24T00:58:35;14.85;;;9.68;;
37067;SDS011;22982;42.848;25.468;2023-04-24T01:03:37;15.18;;;10.48;;
37067;SDS011;22982;42.848;25.468;2023-04-24T01:08:41;15.55;;;10.40;;
37067;SDS011;22982;42.848;25.468;2023-04-24T01:13:43;14.02;;;9.07;;
37067;SDS011;22982;42.848;25.468;2023-04-24T01:18:47;10.38;;;8.77;;
37067;SDS011;22982;42.848;25.468;2023-04-24T01:23:52;15.20;;;9.82;;
37067;SDS011;22982;42.848;25.468;2023-04-24T01:28:55;19.80;;;10.63;;
37067;SDS011;22982;42.848;25.468;2023-04-24T01:33:58;16.42;;;10.18;;
37067;SDS011;22982;42.848;25.468;2023-04-24T01:39:01;19.02;;;10.43;;
37067;SDS011;22982;42.848;25.468;2023-04-24T01:44:05;14.10;;;9.98;;
37067;SDS011;22982;42.848;25.468;2023-04-24T01:49:09;15.88;;;10.25;;
37067;SDS011;22982;42.848;25.468;2023-04-24T01:54:12;21.83;;;12.98;;
37067;SDS011;22982;42.848;25.468;2023-04-24T01:59:15;17.50;;;11.18;;
37067;SDS011;22982;42.848;25.468;2023-04-24T02:04:20;17.20;;;11.32;;
37067;SDS011;22982;42.848;25.468;2023-04-24T02:09:22;17.63;;;11.82;;
37067;SDS011;22982;42.848;25.468;2023-04-24T02:14:25;23.83;;;13.60;;
37067;SDS011;22982;42.848;25.468;2023-04-24T02:19:28;21.77;;;12.75;;
37067;SDS011;22982;42.848;25.468;2023-04-24T02:24:31;21.67;;;13.60;;
37067;SDS011;22982;42.848;25.468;2023-04-24T02:29:33;23.08;;;12.73;;
37067;SDS011;22982;42.848;25.468;2023-04-24T02:34:36;22.60;;;12.82;;
37067;SDS011;22982;42.848;25.468;2023-04-24T02:39:39;27.17;;;14.40;;
37067;SDS011;22982;42.848;25.468;2023-04-24T02:44:42;18.77;;;13.20;;
37067;SDS011;22982;42.848;25.468;2023-04-24T02:49:44;23.45;;;13.50;;
37067;SDS011;22982;42.848;25.468;2023-04-24T02:54:48;24.60;;;14.32;;
37067;SDS011;22982;42.848;25.468;2023-04-24T02:59:50;21.80;;;14.63;;
37067;SDS011;22982;42.848;25.468;2023-04-24T03:04:53;30.75;;;17.65;;
37067;SDS011;22982;42.848;25.468;2023-04-24T03:09:56;26.50;;;16.95;;
37067;SDS011;22982;42.848;25.468;2023-04-24T03:15:01;27.42;;;16.45;;
37067;SDS011;22982;42.848;25.468;2023-04-24T03:20:04;27.92;;;16.60;;
37067;SDS011;22982;42.848;25.468;2023-04-24T03:25:13;26.05;;;16.67;;
37067;SDS011;22982;42.848;25.468;2023-04-24T03:30:16;26.95;;;17.55;;
37067;SDS011;22982;42.848;25.468;2023-04-24T03:35:28;25.35;;;15.45;;
37067;SDS011;22982;42.848;25.468;2023-04-24T03:40:34;24.60;;;14.75;;
37067;SDS011;22982;42.848;25.468;2023-04-24T03:45:45;22.48;;;13.07;;
37067;SDS011;22982;42.848;25.468;2023-04-24T03:50:49;16.83;;;11.30;;
37067;SDS011;22982;42.848;25.468;2023-04-24T03:55:52;25.08;;;15.05;;
37067;SDS011;22982;42.848;25.468;2023-04-24T04:00:55;18.35;;;11.13;;
37067;SDS011;22982;42.848;25.468;2023-04-24T04:06:18;18.88;;;13.13;;
37067;SDS011;22982;42.848;25.468;2023-04-24T04:11:21;15.88;;;11.13;;
37067;SDS011;22982;42.848;25.468;2023-04-24T04:16:24;13.90;;;9.98;;
37067;SDS011;22982;42.848;25.468;2023-04-24T04:21:33;20.88;;;11.02;;
37067;SDS011;22982;42.848;25.468;2023-04-24T04:26:46;19.83;;;10.75;;
37067;SDS011;22982;42.848;25.468;2023-04-24T04:32:09;17.55;;;12.15;;
37067;SDS011;22982;42.848;25.468;2023-04-24T04:37:12;20.85;;;12.25;;
37067;SDS011;22982;42.848;25.468;2023-04-24T04:42:25;22.92;;;14.45;;
37067;SDS011;22982;42.848;25.468;2023-04-24T04:47:29;28.45;;;15.43;;
37067;SDS011;22982;42.848;25.468;2023-04-24T04:52:35;21.63;;;14.60;;
37067;SDS011;22982;42.848;25.468;2023-04-24T04:58:01;24.67;;;15.85;;
37067;SDS011;22982;42.848;25.468;2023-04-24T05:03:03;30.98;;;17.83;;
37067;SDS011;22982;42.848;25.468;2023-04-24T05:08:24;37.17;;;22.15;;
37067;SDS011;22982;42.848;25.468;2023-04-24T05:13:30;28.52;;;18.88;;
37067;SDS011;22982;42.848;25.468;2023-04-24T05:18:47;24.67;;;16.38;;
37067;SDS011;22982;42.848;25.468;2023-04-24T05:23:54;22.85;;;13.40;;
37067;SDS011;22982;42.848;25.468;2023-04-24T05:29:16;17.38;;;9.68;;
37067;SDS011;22982;42.848;25.468;2023-04-24T05:34:21;12.05;;;7.63;;
37067;SDS011;22982;42.848;25.468;2023-04-24T05:39:28;7.35;;;5.50;;
37067;SDS011;22982;42.848;25.468;2023-04-24T05:44:33;7.07;;;3.85;;
37067;SDS011;22982;42.848;25.468;2023-04-24T05:49:36;5.97;;;4.13;;
37067;SDS011;22982;42.848;25.468;2023-04-24T05:54:39;6.68;;;4.05;;
37067;SDS011;22982;42.848;25.468;2023-04-24T05:59:45;9.25;;;4.03;;
37067;SDS011;22982;42.848;25.468;2023-04-24T06:04:49;11.43;;;4.35;;
37067;SDS011;22982;42.848;25.468;2023-04-24T06:09:52;7.90;;;4.20;;
37067;SDS011;22982;42.848;25.468;2023-04-24T06:14:56;9.27;;;4.30;;
37067;SDS011;22982;42.848;25.468;2023-04-24T06:20:23;7.20;;;4.28;;
37067;SDS011;22982;42.848;25.468;2023-04-24T06:25:26;11.98;;;4.50;;
37067;SDS011;22982;42.848;25.468;2023-04-24T06:30:28;9.20;;;4.88;;
37067;SDS011;22982;42.848;25.468;2023-04-24T06:35:31;11.43;;;5.40;;
37067;SDS011;22982;42.848;25.468;2023-04-24T06:40:33;11.65;;;5.57;;
37067;SDS011;22982;42.848;25.468;2023-04-24T06:45:37;7.00;;;4.75;;
37067;SDS011;22982;42.848;25.468;2023-04-24T06:50:41;5.55;;;4.60;;
37067;SDS011;22982;42.848;25.468;2023-04-24T06:55:44;10.02;;;5.38;;
37067;SDS011;22982;42.848;25.468;2023-04-24T07:00:47;8.73;;;3.90;;
37067;SDS011;22982;42.848;25.468;2023-04-24T07:05:49;4.50;;;3.45;;
37067;SDS011;22982;42.848;25.468;2023-04-24T07:10:53;8.23;;;3.85;;
37067;SDS011;22982;42.848;25.468;2023-04-24T07:15:55;8.77;;;3.90;;
37067;SDS011;22982;42.848;25.468;2023-04-24T07:20:58;4.03;;;3.00;;
37067;SDS011;22982;42.848;25.468;2023-04-24T07:26:01;7.50;;;4.18;;
37067;SDS011;22982;42.848;25.468;2023-04-24T07:31:04;10.65;;;4.40;;
37067;SDS011;22982;42.848;25.468;2023-04-24T07:36:07;6.18;;;3.90;;
37067;SDS011;22982;42.848;25.468;2023-04-24T07:41:10;7.68;;;3.58;;
37067;SDS011;22982;42.848;25.468;2023-04-24T07:46:12;8.30;;;4.18;;
37067;SDS011;22982;42.848;25.468;2023-04-24T07:51:15;16.17;;;12.13;;
37067;SDS011;22982;42.848;25.468;2023-04-24T07:56:18;22.40;;;18.83;;
37067;SDS011;22982;42.848;25.468;2023-04-24T08:01:20;12.27;;;7.53;;
37067;SDS011;22982;42.848;25.468;2023-04-24T08:06:23;9.35;;;6.22;;
37067;SDS011;22982;42.848;25.468;2023-04-24T08:11:26;5.97;;;4.22;;
37067;SDS011;22982;42.848;25.468;2023-04-24T08:16:29;28.67;;;21.58;;
37067;SDS011;22982;42.848;25.468;2023-04-24T08:21:32;7.75;;;5.80;;
37067;SDS011;22982;42.848;25.468;2023-04-24T08:26:35;47.30;;;35.17;;
37067;SDS011;22982;42.848;25.468;2023-04-24T08:31:37;5.95;;;3.88;;
37067;SDS011;22982;42.848;25.468;2023-04-24T08:36:40;5.22;;;3.28;;
37067;SDS011;22982;42.848;25.468;2023-04-24T08:41:48;16.73;;;10.57;;
37067;SDS011;22982;42.848;25.468;2023-04-24T08:46:51;7.60;;;4.90;;
37067;SDS011;22982;42.848;25.468;2023-04-24T08:51:56;13.05;;;10.88;;
37067;SDS011;22982;42.848;25.468;2023-04-24T08:56:59;11.05;;;8.38;;
37067;SDS011;22982;42.848;25.468;2023-04-24T09:02:03;8.65;;;7.47;;
37067;SDS011;22982;42.848;25.468;2023-04-24T09:07:06;20.02;;;15.93;;
37067;SDS011;22982;42.848;25.468;2023-04-24T09:12:12;6.00;;;5.32;;
37067;SDS011;22982;42.848;25.468;2023-04-24T09:17:15;7.55;;;4.53;;
37067;SDS011;22982;42.848;25.468;2023-04-24T09:22:18;6.47;;;4.13;;
37067;SDS011;22982;42.848;25.468;2023-04-24T09:27:22;6.50;;;4.07;;
37067;SDS011;22982;42.848;25.468;2023-04-24T09:32:26;4.32;;;3.90;;
37067;SDS011;22982;42.848;25.468;2023-04-24T09:37:30;7.30;;;4.30;;
37067;SDS011;22982;42.848;25.468;2023-04-24T09:42:32;8.25;;;4.07;;
37067;SDS011;22982;42.848;25.468;2023-04-24T09:47:35;7.35;;;3.67;;
37067;SDS011;22982;42.848;25.468;2023-04-24T09:52:46;5.65;;;3.92;;
37067;SDS011;22982;42.848;25.468;2023-04-24T09:57:59;10.55;;;3.97;;
37067;SDS011;22982;42.848;25.468;2023-04-24T10:03:03;6.40;;;3.85;;
37067;SDS011;22982;42.848;25.468;2023-04-24T10:08:09;10.02;;;4.32;;
37067;SDS011;22982;42.848;25.468;2023-04-24T10:13:14;11.55;;;3.92;;
37067;SDS011;22982;42.848;25.468;2023-04-24T10:18:17;5.63;;;3.58;;
37067;SDS011;22982;42.848;25.468;2023-04-24T10:23:21;6.50;;;3.53;;
37067;SDS011;22982;42.848;25.468;2023-04-24T10:28:24;7.38;;;4.68;;
37067;SDS011;22982;42.848;25.468;2023-04-24T10:33:29;7.13;;;3.58;;
37067;SDS011;22982;42.848;25.468;2023-04-24T10:38:33;6.03;;;3.95;;
37067;SDS011;22982;42.848;25.468;2023-04-24T10:43:39;6.47;;;3.65;;
37067;SDS011;22982;42.848;25.468;2023-04-24T10:48:42;5.93;;;4.30;;
37067;SDS011;22982;42.848;25.468;2023-04-24T10:53:45;6.90;;;4.63;;
37067;SDS011;22982;42.848;25.468;2023-04-24T10:58:49;9.27;;;3.70;;
37067;SDS011;22982;42.848;25.468;2023-04-24T11:03:55;4.80;;;4.35;;
37067;SDS011;22982;42.848;25.468;2023-04-24T11:09:03;9.27;;;4.80;;
37067;SDS011;22982;42.848;25.468;2023-04-24T11:14:07;8.05;;;4.28;;
37067;SDS011;22982;42.848;25.468;2023-04-24T11:19:17;9.15;;;4.20;;
37067;SDS011;22982;42.848;25.468;2023-04-24T11:35:03;4.38;;;3.47;;
37067;SDS011;22982;42.848;25.468;2023-04-24T11:40:12;7.03;;;5.13;;
37067;SDS011;22982;42.848;25.468;2023-04-24T11:50:26;6.75;;;4.80;;
37067;SDS011;22982;42.848;25.468;2023-04-24T11:55:30;13.48;;;8.13;;
37067;SDS011;22982;42.848;25.468;2023-04-24T12:00:33;7.32;;;5.07;;
37067;SDS011;22982;42.848;25.468;2023-04-24T12:05:36;13.88;;;5.40;;
37067;SDS011;22982;42.848;25.468;2023-04-24T12:10:41;7.50;;;5.68;;
37067;SDS011;22982;42.848;25.468;2023-04-24T12:15:43;5.75;;;4.30;;
37067;SDS011;22982;42.848;25.468;2023-04-24T12:20:46;6.57;;;4.35;;
37067;SDS011;22982;42.848;25.468;2023-04-24T12:25:50;9.00;;;4.30;;
37067;SDS011;22982;42.848;25.468;2023-04-24T12:30:53;6.50;;;3.80;;
37067;SDS011;22982;42.848;25.468;2023-04-24T12:35:56;6.60;;;4.40;;
37067;SDS011;22982;42.848;25.468;2023-04-24T12:41:04;5.00;;;4.00;;
37067;SDS011;22982;42.848;25.468;2023-04-24T12:46:08;6.05;;;4.28;;
37067;SDS011;22982;42.848;25.468;2023-04-24T12:51:10;9.05;;;3.88;;
37067;SDS011;22982;42.848;25.468;2023-04-24T12:56:13;7.60;;;5.65;;
37067;SDS011;22982;42.848;25.468;2023-04-24T13:01:15;6.47;;;4.00;;
37067;SDS011;22982;42.848;25.468;2023-04-24T13:06:18;7.53;;;4.18;;
37067;SDS011;22982;42.848;25.468;2023-04-24T13:11:21;6.45;;;4.10;;
37067;SDS011;22982;42.848;25.468;2023-04-24T13:16:25;7.85;;;4.75;;
37067;SDS011;22982;42.848;25.468;2023-04-24T13:21:27;8.18;;;5.28;;
37067;SDS011;22982;42.848;25.468;2023-04-24T13:26:32;5.75;;;5.00;;
37067;SDS011;22982;42.848;25.468;2023-04-24T13:31:35;7.88;;;4.22;;
37067;SDS011;22982;42.848;25.468;2023-04-24T13:36:37;6.32;;;4.60;;
37067;SDS011;22982;42.848;25.468;2023-04-24T13:41:41;6.00;;;4.68;;
37067;SDS011;22982;42.848;25.468;2023-04-24T13:46:43;10.10;;;4.90;;
37067;SDS011;22982;42.848;25.468;2023-04-24T13:51:47;5.55;;;4.32;;
37067;SDS011;22982;42.848;25.468;2023-04-24T13:56:51;6.75;;;4.90;;
37067;SDS011;22982;42.848;25.468;2023-04-24T14:01:53;8.23;;;5.47;;
37067;SDS011;22982;42.848;25.468;2023-04-24T14:06:57;6.90;;;4.60;;
37067;SDS011;22982;42.848;25.468;2023-04-24T14:11:59;10.07;;;4.70;;
37067;SDS011;22982;42.848;25.468;2023-04-24T14:17:04;6.57;;;4.75;;
37067;SDS011;22982;42.848;25.468;2023-04-24T14:22:06;9.82;;;6.30;;
37067;SDS011;22982;42.848;25.468;2023-04-24T14:27:09;9.25;;;5.50;;
37067;SDS011;22982;42.848;25.468;2023-04-24T14:32:12;9.55;;;5.78;;
37067;SDS011;22982;42.848;25.468;2023-04-24T14:37:16;5.95;;;5.13;;
37067;SDS011;22982;42.848;25.468;2023-04-24T14:42:19;8.38;;;6.30;;
37067;SDS011;22982;42.848;25.468;2023-04-24T14:47:22;8.35;;;6.78;;
37067;SDS011;22982;42.848;25.468;2023-04-24T14:52:24;8.43;;;6.60;;
37067;SDS011;22982;42.848;25.468;2023-04-24T14:57:27;7.80;;;7.10;;
37067;SDS011;22982;42.848;25.468;2023-04-24T15:02:30;10.60;;;5.88;;
37067;SDS011;22982;42.848;25.468;2023-04-24T15:07:32;11.70;;;5.60;;
37067;SDS011;22982;42.848;25.468;2023-04-24T15:12:35;17.50;;;11.52;;
37067;SDS011;22982;42.848;25.468;2023-04-24T15:17:39;7.55;;;5.68;;
37067;SDS011;22982;42.848;25.468;2023-04-24T15:22:42;9.70;;;8.02;;
37067;SDS011;22982;42.848;25.468;2023-04-24T15:27:45;7.40;;;5.90;;
37067;SDS011;22982;42.848;25.468;2023-04-24T15:32:48;9.88;;;7.20;;
37067;SDS011;22982;42.848;25.468;2023-04-24T15:37:50;10.35;;;8.15;;
37067;SDS011;22982;42.848;25.468;2023-04-24T15:42:54;10.40;;;7.05;;
37067;SDS011;22982;42.848;25.468;2023-04-24T15:47:56;7.75;;;6.60;;
37067;SDS011;22982;42.848;25.468;2023-04-24T15:52:59;25.13;;;18.08;;
37067;SDS011;22982;42.848;25.468;2023-04-24T15:58:01;14.32;;;11.80;;
37067;SDS011;22982;42.848;25.468;2023-04-24T16:03:04;14.43;;;11.52;;
37067;SDS011;22982;42.848;25.468;2023-04-24T16:08:11;9.98;;;7.40;;
37067;SDS011;22982;42.848;25.468;2023-04-24T16:13:15;18.92;;;12.85;;
37067;SDS011;22982;42.848;25.468;2023-04-24T16:18:19;11.30;;;6.45;;
37067;SDS011;22982;42.848;25.468;2023-04-24T16:23:22;25.92;;;11.93;;
37067;SDS011;22982;42.848;25.468;2023-04-24T16:28:25;7.43;;;6.75;;
37067;SDS011;22982;42.848;25.468;2023-04-24T16:33:29;37.25;;;19.55;;
37067;SDS011;22982;42.848;25.468;2023-04-24T16:38:32;39.13;;;22.75;;
37067;SDS011;22982;42.848;25.468;2023-04-24T16:43:37;29.13;;;19.52;;
37067;SDS011;22982;42.848;25.468;2023-04-24T16:48:39;26.77;;;19.85;;
37067;SDS011;22982;42.848;25.468;2023-04-24T16:53:43;35.35;;;26.25;;
37067;SDS011;22982;42.848;25.468;2023-04-24T16:58:46;13.30;;;10.35;;
37067;SDS011;22982;42.848;25.468;2023-04-24T17:03:52;15.85;;;10.93;;
37067;SDS011;22982;42.848;25.468;2023-04-24T17:08:56;18.65;;;13.73;;
37067;SDS011;22982;42.848;25.468;2023-04-24T17:13:59;20.63;;;15.13;;
37067;SDS011;22982;42.848;25.468;2023-04-24T17:19:03;14.95;;;12.65;;
37067;SDS011;22982;42.848;25.468;2023-04-24T17:24:06;17.35;;;12.40;;
37067;SDS011;22982;42.848;25.468;2023-04-24T17:29:09;17.98;;;12.98;;
37067;SDS011;22982;42.848;25.468;2023-04-24T17:34:16;11.82;;;9.55;;
37067;SDS011;22982;42.848;25.468;2023-04-24T17:39:20;15.82;;;10.57;;
37067;SDS011;22982;42.848;25.468;2023-04-24T17:44:23;12.30;;;10.60;;
37067;SDS011;22982;42.848;25.468;2023-04-24T17:49:27;33.50;;;27.80;;
37067;SDS011;22982;42.848;25.468;2023-04-24T17:54:29;10.77;;;9.15;;
37067;SDS011;22982;42.848;25.468;2023-04-24T17:59:32;10.45;;;8.05;;
37067;SDS011;22982;42.848;25.468;2023-04-24T18:04:34;11.15;;;9.90;;
37067;SDS011;22982;42.848;25.468;2023-04-24T18:09:40;19.35;;;14.32;;
37067;SDS011;22982;42.848;25.468;2023-04-24T18:14:42;16.48;;;12.57;;
37067;SDS011;22982;42.848;25.468;2023-04-24T18:19:45;11.50;;;6.72;;
37067;SDS011;22982;42.848;25.468;2023-04-24T18:24:48;11.40;;;8.25;;
37067;SDS011;22982;42.848;25.468;2023-04-24T18:29:51;10.35;;;8.48;;
37067;SDS011;22982;42.848;25.468;2023-04-24T18:34:54;21.48;;;13.55;;
37067;SDS011;22982;42.848;25.468;2023-04-24T18:39:57;17.08;;;12.70;;
37067;SDS011;22982;42.848;25.468;2023-04-24T18:45:00;5.25;;;3.47;;
37067;SDS011;22982;42.848;25.468;2023-04-24T18:50:03;6.53;;;4.25;;
37067;SDS011;22982;42.848;25.468;2023-04-24T18:55:07;15.00;;;11.98;;
37067;SDS011;22982;42.848;25.468;2023-04-24T19:00:10;6.88;;;4.57;;
37067;SDS011;22982;42.848;25.468;2023-04-24T19:05:14;8.82;;;5.72;;
37067;SDS011;22982;42.848;25.468;2023-04-24T19:10:16;12.38;;;8.82;;
37067;SDS011;22982;42.848;25.468;2023-04-24T19:15:20;6.53;;;5.53;;
37067;SDS011;22982;42.848;25.468;2023-04-24T19:20:22;7.78;;;6.30;;
37067;SDS011;22982;42.848;25.468;2023-04-24T19:25:24;14.35;;;8.43;;
37067;SDS011;22982;42.848;25.468;2023-04-24T19:30:27;44.83;;;30.35;;
37067;SDS011;22982;42.848;25.468;2023-04-24T19:35:29;73.78;;;57.33;;
37067;SDS011;22982;42.848;25.468;2023-04-24T19:40:33;27.73;;;23.85;;
37067;SDS011;22982;42.848;25.468;2023-04-24T19:45:35;14.18;;;9.93;;
37067;SDS011;22982;42.848;25.468;2023-04-24T19:50:37;15.40;;;12.10;;
37067;SDS011;22982;42.848;25.468;2023-04-24T19:55:41;12.65;;;7.43;;
37067;SDS011;22982;42.848;25.468;2023-04-24T20:00:44;9.57;;;7.93;;
37067;SDS011;22982;42.848;25.468;2023-04-24T20:05:47;11.45;;;7.20;;
37067;SDS011;22982;42.848;25.468;2023-04-24T20:10:50;10.88;;;8.00;;
37067;SDS011;22982;42.848;25.468;2023-04-24T20:15:53;8.48;;;7.63;;
37067;SDS011;22982;42.848;25.468;2023-04-24T20:20:56;7.53;;;6.72;;
37067;SDS011;22982;42.848;25.468;2023-04-24T20:26:00;9.65;;;7.65;;
37067;SDS011;22982;42.848;25.468;2023-04-24T20:31:06;12.10;;;8.50;;
37067;SDS011;22982;42.848;25.468;2023-04-24T20:36:08;6.50;;;5.90;;
37067;SDS011;22982;42.848;25.468;2023-04-24T20:41:15;6.78;;;5.68;;
37067;SDS011;22982;42.848;25.468;2023-04-24T20:46:18;8.90;;;5.45;;
37067;SDS011;22982;42.848;25.468;2023-04-24T20:51:20;8.65;;;7.55;;
37067;SDS011;22982;42.848;25.468;2023-04-24T20:56:26;12.65;;;7.50;;
37067;SDS011;22982;42.848;25.468;2023-04-24T21:01:28;6.50;;;5.90;;
37067;SDS011;22982;42.848;25.468;2023-04-24T21:06:31;8.38;;;6.13;;
37067;SDS011;22982;42.848;25.468;2023-04-24T21:11:34;8.43;;;6.95;;
37067;SDS011;22982;42.848;25.468;2023-04-24T21:16:37;10.18;;;7.25;;
37067;SDS011;22982;42.848;25.468;2023-04-24T21:21:40;11.68;;;7.25;;
37067;SDS011;22982;42.848;25.468;2023-04-24T21:26:42;12.70;;;7.65;;
37067;SDS011;22982;42.848;25.468;2023-04-24T21:31:46;10.93;;;8.48;;
37067;SDS011;22982;42.848;25.468;2023-04-24T21:36:54;13.05;;;7.25;;
37067;SDS011;22982;42.848;25.468;2023-04-24T21:41:57;9.32;;;7.85;;
37067;SDS011;22982;42.848;25.468;2023-04-24T21:47:00;10.13;;;7.85;;
37067;SDS011;22982;42.848;25.468;2023-04-24T21:52:02;11.00;;;8.30;;
37067;SDS011;22982;42.848;25.468;2023-04-24T21:57:05;10.88;;;8.57;;
37067;SDS011;22982;42.848;25.468;2023-04-24T22:02:07;8.60;;;7.70;;
37067;SDS011;22982;42.848;25.468;2023-04-24T22:07:10;8.93;;;7.68;;
37067;SDS011;22982;42.848;25.468;2023-04-24T22:12:13;12.05;;;8.65;;
37067;SDS011;22982;42.848;25.468;2023-04-24T22:17:15;14.13;;;9.50;;
37067;SDS011;22982;42.848;25.468;2023-04-24T22:22:18;14.77;;;10.50;;
37067;SDS011;22982;42.848;25.468;2023-04-24T22:27:21;19.77;;;11.98;;
37067;SDS011;22982;42.848;25.468;2023-04-24T22:32:24;14.45;;;10.73;;
37067;SDS011;22982;42.848;25.468;2023-04-24T22:37:26;20.10;;;11.93;;
37067;SDS011;22982;42.848;25.468;2023-04-24T22:42:29;18.38;;;12.63;;
37067;SDS011;22982;42.848;25.468;2023-04-24T22:47:32;17.40;;;11.27;;
37067;SDS011;22982;42.848;25.468;2023-04-24T22:52:35;18.70;;;10.90;;
37067;SDS011;22982;42.848;25.468;2023-04-24T22:57:38;15.68;;;12.55;;
37067;SDS011;22982;42.848;25.468;2023-04-24T23:02:42;14.07;;;11.65;;
37067;SDS011;22982;42.848;25.468;2023-04-24T23:07:44;24.35;;;14.25;;
37067;SDS011;22982;42.848;25.468;2023-04-24T23:12:48;19.45;;;12.63;;
37067;SDS011;22982;42.848;25.468;2023-04-24T23:17:50;17.40;;;12.18;;
37067;SDS011;22982;42.848;25.468;2023-04-24T23:22:52;19.98;;;13.90;;
37067;SDS011;22982;42.848;25.468;2023-04-24T23:27:56;14.98;;;12.88;;
37067;SDS011;22982;42.848;25.468;2023-04-24T23:32:58;17.75;;;13.73;;
37067;SDS011;22982;42.848;25.468;2023-04-24T23:38:01;18.55;;;13.15;;
37067;SDS011;22982;42.848;25.468;2023-04-24T23:43:04;18.70;;;14.98;;
37067;SDS011;22982;42.848;25.468;2023-04-24T23:48:09;15.63;;;13.43;;
37067;SDS011;22982;42.848;25.468;2023-04-24T23:53:11;19.50;;;15.13;;
37067;SDS011;22982;42.848;25.468;2023-04-24T23:58:14;24.25;;;15.18;;
